VMMC

Macau International Airport

Taipa, Macau
TAF VMMC 182300Z 1900/2006 04008KT 7000 FEW025 SCT035 TEMPO 1900/1910 4500 HZ TEMPO 1909/1918 10010KT
Issued Valid From Valid To
Jan-18 @ 23:00 UTC
(3 hours ago)
Jan-19 @ 00:00 UTC
(2 hours ago)
Jan-20 @ 06:00 UTC
(-1 days ago)
Jan-19 @ 00:00 to Jan-20 @ 06:00
TAF VMMC 182300Z 1900/2006 04008KT 7000 FEW025 SCT035
Wind Visibility Clouds
40° at 8 knots 7,001 meters
  • Few at 2,500' AGL
  • Scattered at 3,500' AGL
Temporary Jan-19 @ 00:00 to Jan-19 @ 10:00
TEMPO 1900/1910 4500 HZ
Visibility Conditions
4,506 meters
  • Haze
Temporary Jan-19 @ 09:00 to Jan-19 @ 18:00
TEMPO 1909/1918 10010KT
Wind
100° at 10 knots
TAF VMMC 182300Z 1900/2006 04008KT 7000 FEW025 SCT035 TEMPO 1900/1910 4500 HZ TEMPO 1909/1918 10010KT
Issued Jan-18 @ 23:00 UTC
(3 hours ago)
Valid From Jan-19 @ 00:00 UTC
(2 hours ago)
Valid To Jan-20 @ 06:00 UTC
(-1 days ago)
Jan-19 @ 00:00 - Jan-20 @ 06:00
Wind Visibility
40° at 8 knots 7,001 meters
Clouds
  • Few at 2,500' AGL
  • Scattered at 3,500' AGL
Temporary Jan-19 @ 00:00 - Jan-19 @ 10:00
Conditions
  • Haze
Temporary Jan-19 @ 09:00 - Jan-19 @ 18:00
Wind
100° at 10 knots